sensor_id;sensor_type;location;lat;lon;timestamp;temperature;humidity
1277;DHT22;631;51.024;13.826;2023-02-20T00:00:05;3.60;99.90
1277;DHT22;631;51.024;13.826;2023-02-20T00:02:31;3.70;99.90
1277;DHT22;631;51.024;13.826;2023-02-20T00:04:57;3.60;99.90
1277;DHT22;631;51.024;13.826;2023-02-20T00:07:22;3.50;99.90
1277;DHT22;631;51.024;13.826;2023-02-20T00:09:48;3.60;99.90
1277;DHT22;631;51.024;13.826;2023-02-20T00:12:13;3.60;99.90
1277;DHT22;631;51.024;13.826;2023-02-20T00:14:39;3.70;99.90
1277;DHT22;631;51.024;13.826;2023-02-20T00:17:05;3.70;99.90
1277;DHT22;631;51.024;13.826;2023-02-20T00:19:30;3.80;99.90
1277;DHT22;631;51.024;13.826;2023-02-20T00:21:56;3.80;99.90
1277;DHT22;631;51.024;13.826;2023-02-20T00:24:21;3.80;99.90
1277;DHT22;631;51.024;13.826;2023-02-20T00:26:52;3.90;99.90
1277;DHT22;631;51.024;13.826;2023-02-20T00:29:20;3.90;99.90
1277;DHT22;631;51.024;13.826;2023-02-20T00:31:54;3.90;99.90
1277;DHT22;631;51.024;13.826;2023-02-20T00:34:21;3.90;99.90
1277;DHT22;631;51.024;13.826;2023-02-20T00:36:46;3.90;99.90
1277;DHT22;631;51.024;13.826;2023-02-20T00:39:13;3.90;99.90
1277;DHT22;631;51.024;13.826;2023-02-20T00:41:39;3.90;99.90
1277;DHT22;631;51.024;13.826;2023-02-20T00:44:04;3.90;99.90
1277;DHT22;631;51.024;13.826;2023-02-20T00:46:30;3.90;99.90
1277;DHT22;631;51.024;13.826;2023-02-20T00:48:57;3.80;99.90
1277;DHT22;631;51.024;13.826;2023-02-20T00:51:23;3.90;99.90
1277;DHT22;631;51.024;13.826;2023-02-20T00:53:48;3.80;99.90
1277;DHT22;631;51.024;13.826;2023-02-20T00:56:14;3.90;99.90
1277;DHT22;631;51.024;13.826;2023-02-20T00:58:40;3.90;99.90
1277;DHT22;631;51.024;13.826;2023-02-20T01:01:06;3.80;99.90
1277;DHT22;631;51.024;13.826;2023-02-20T01:03:32;3.80;99.90
1277;DHT22;631;51.024;13.826;2023-02-20T01:05:57;3.90;99.90
1277;DHT22;631;51.024;13.826;2023-02-20T01:08:23;3.90;99.90
1277;DHT22;631;51.024;13.826;2023-02-20T01:10:49;3.90;99.90
1277;DHT22;631;51.024;13.826;2023-02-20T01:13:15;3.90;99.90
1277;DHT22;631;51.024;13.826;2023-02-20T01:15:41;4.00;99.90
1277;DHT22;631;51.024;13.826;2023-02-20T01:18:07;4.10;99.90
1277;DHT22;631;51.024;13.826;2023-02-20T01:20:32;4.10;99.90
1277;DHT22;631;51.024;13.826;2023-02-20T01:22:58;4.10;99.90
1277;DHT22;631;51.024;13.826;2023-02-20T01:25:23;4.20;99.90
1277;DHT22;631;51.024;13.826;2023-02-20T01:27:49;4.20;99.90
1277;DHT22;631;51.024;13.826;2023-02-20T01:30:15;4.30;99.90
1277;DHT22;631;51.024;13.826;2023-02-20T01:32:41;4.30;99.90
1277;DHT22;631;51.024;13.826;2023-02-20T01:35:06;4.20;99.90
1277;DHT22;631;51.024;13.826;2023-02-20T01:37:32;4.30;99.90
1277;DHT22;631;51.024;13.826;2023-02-20T01:39:58;4.20;99.90
1277;DHT22;631;51.024;13.826;2023-02-20T01:42:25;4.20;99.90
1277;DHT22;631;51.024;13.826;2023-02-20T01:44:52;4.20;99.90
1277;DHT22;631;51.024;13.826;2023-02-20T01:47:20;4.30;99.90
1277;DHT22;631;51.024;13.826;2023-02-20T01:49:55;4.30;99.90
1277;DHT22;631;51.024;13.826;2023-02-20T01:52:27;4.30;99.90
1277;DHT22;631;51.024;13.826;2023-02-20T01:55:03;4.30;99.90
1277;DHT22;631;51.024;13.826;2023-02-20T01:57:32;4.30;99.90
1277;DHT22;631;51.024;13.826;2023-02-20T02:00:06;4.40;99.90
1277;DHT22;631;51.024;13.826;2023-02-20T02:02:38;4.40;99.90
1277;DHT22;631;51.024;13.826;2023-02-20T02:05:07;4.40;99.90
1277;DHT22;631;51.024;13.826;2023-02-20T02:07:34;4.40;99.90
1277;DHT22;631;51.024;13.826;2023-02-20T02:10:03;4.50;99.90
1277;DHT22;631;51.024;13.826;2023-02-20T02:12:31;4.40;99.90
1277;DHT22;631;51.024;13.826;2023-02-20T02:14:56;4.30;99.90
1277;DHT22;631;51.024;13.826;2023-02-20T02:17:48;4.30;99.90
1277;DHT22;631;51.024;13.826;2023-02-20T02:36:35;4.20;99.90
1277;DHT22;631;51.024;13.826;2023-02-20T02:39:07;4.30;99.90
1277;DHT22;631;51.024;13.826;2023-02-20T02:41:52;4.30;99.90
1277;DHT22;631;51.024;13.826;2023-02-20T02:44:24;4.30;99.90
1277;DHT22;631;51.024;13.826;2023-02-20T02:47:03;4.40;99.90
1277;DHT22;631;51.024;13.826;2023-02-20T02:49:36;4.40;99.90
1277;DHT22;631;51.024;13.826;2023-02-20T02:52:03;4.40;99.90
1277;DHT22;631;51.024;13.826;2023-02-20T02:54:30;4.40;99.90
1277;DHT22;631;51.024;13.826;2023-02-20T02:57:31;4.50;99.90
1277;DHT22;631;51.024;13.826;2023-02-20T03:00:00;4.50;99.90
1277;DHT22;631;51.024;13.826;2023-02-20T03:02:30;4.50;99.90
1277;DHT22;631;51.024;13.826;2023-02-20T03:04:58;4.50;99.90
1277;DHT22;631;51.024;13.826;2023-02-20T03:07:26;4.50;99.90
1277;DHT22;631;51.024;13.826;2023-02-20T03:10:10;4.50;99.90
1277;DHT22;631;51.024;13.826;2023-02-20T03:12:41;4.60;99.90
1277;DHT22;631;51.024;13.826;2023-02-20T03:15:25;4.60;99.90
1277;DHT22;631;51.024;13.826;2023-02-20T03:18:16;4.60;99.90
1277;DHT22;631;51.024;13.826;2023-02-20T03:20:52;4.70;99.90
1277;DHT22;631;51.024;13.826;2023-02-20T03:23:31;4.70;99.90
1277;DHT22;631;51.024;13.826;2023-02-20T03:26:09;4.80;99.90
1277;DHT22;631;51.024;13.826;2023-02-20T03:28:45;4.80;99.90
1277;DHT22;631;51.024;13.826;2023-02-20T03:31:18;4.80;99.90
1277;DHT22;631;51.024;13.826;2023-02-20T03:34:02;4.80;99.90
1277;DHT22;631;51.024;13.826;2023-02-20T03:36:53;4.80;99.90
1277;DHT22;631;51.024;13.826;2023-02-20T03:39:46;4.90;99.90
1277;DHT22;631;51.024;13.826;2023-02-20T03:42:33;5.00;99.90
1277;DHT22;631;51.024;13.826;2023-02-20T03:45:19;5.00;99.90
1277;DHT22;631;51.024;13.826;2023-02-20T03:47:49;5.00;99.90
1277;DHT22;631;51.024;13.826;2023-02-20T03:50:17;5.10;99.90
1277;DHT22;631;51.024;13.826;2023-02-20T03:52:43;5.20;99.90
1277;DHT22;631;51.024;13.826;2023-02-20T03:55:09;5.30;99.90
1277;DHT22;631;51.024;13.826;2023-02-20T03:57:44;5.30;99.90
1277;DHT22;631;51.024;13.826;2023-02-20T04:00:17;5.40;99.90
1277;DHT22;631;51.024;13.826;2023-02-20T04:02:46;5.50;99.90
1277;DHT22;631;51.024;13.826;2023-02-20T04:05:19;5.60;99.90
1277;DHT22;631;51.024;13.826;2023-02-20T04:10:22;5.90;99.90
1277;DHT22;631;51.024;13.826;2023-02-20T04:12:49;6.10;99.90
1277;DHT22;631;51.024;13.826;2023-02-20T04:15:16;6.30;99.90
1277;DHT22;631;51.024;13.826;2023-02-20T04:17:49;6.40;99.90
1277;DHT22;631;51.024;13.826;2023-02-20T04:20:16;6.50;99.90
1277;DHT22;631;51.024;13.826;2023-02-20T04:22:44;6.60;99.90
1277;DHT22;631;51.024;13.826;2023-02-20T04:27:51;6.80;99.90
1277;DHT22;631;51.024;13.826;2023-02-20T04:30:17;6.80;99.90
1277;DHT22;631;51.024;13.826;2023-02-20T04:32:43;6.80;99.90
1277;DHT22;631;51.024;13.826;2023-02-20T04:35:16;6.90;99.90
1277;DHT22;631;51.024;13.826;2023-02-20T04:37:42;6.90;99.90
1277;DHT22;631;51.024;13.826;2023-02-20T04:40:10;6.90;99.90
1277;DHT22;631;51.024;13.826;2023-02-20T04:42:35;7.00;99.90
1277;DHT22;631;51.024;13.826;2023-02-20T04:45:01;7.00;99.90
1277;DHT22;631;51.024;13.826;2023-02-20T04:47:27;7.10;99.90
1277;DHT22;631;51.024;13.826;2023-02-20T04:49:52;7.10;99.90
1277;DHT22;631;51.024;13.826;2023-02-20T04:52:18;7.10;99.90
1277;DHT22;631;51.024;13.826;2023-02-20T04:54:44;7.30;99.90
1277;DHT22;631;51.024;13.826;2023-02-20T04:57:09;7.30;99.90
1277;DHT22;631;51.024;13.826;2023-02-20T04:59:35;7.30;99.90
1277;DHT22;631;51.024;13.826;2023-02-20T05:02:00;7.30;99.90
1277;DHT22;631;51.024;13.826;2023-02-20T05:04:26;7.40;99.90
1277;DHT22;631;51.024;13.826;2023-02-20T05:06:53;7.40;99.90
1277;DHT22;631;51.024;13.826;2023-02-20T05:09:20;7.40;99.90
1277;DHT22;631;51.024;13.826;2023-02-20T05:11:46;7.40;99.90
1277;DHT22;631;51.024;13.826;2023-02-20T05:14:12;7.50;99.90
1277;DHT22;631;51.024;13.826;2023-02-20T05:16:39;7.50;99.90
1277;DHT22;631;51.024;13.826;2023-02-20T05:19:06;7.50;99.90
1277;DHT22;631;51.024;13.826;2023-02-20T05:21:32;7.60;99.90
1277;DHT22;631;51.024;13.826;2023-02-20T05:24:16;7.70;99.90
1277;DHT22;631;51.024;13.826;2023-02-20T05:26:42;7.70;99.90
1277;DHT22;631;51.024;13.826;2023-02-20T05:29:07;7.70;99.90
1277;DHT22;631;51.024;13.826;2023-02-20T05:31:39;7.70;99.90
1277;DHT22;631;51.024;13.826;2023-02-20T05:34:06;7.80;99.90
1277;DHT22;631;51.024;13.826;2023-02-20T05:36:32;7.80;99.90
1277;DHT22;631;51.024;13.826;2023-02-20T05:38:57;7.80;99.90
1277;DHT22;631;51.024;13.826;2023-02-20T05:41:23;7.80;99.90
1277;DHT22;631;51.024;13.826;2023-02-20T05:43:49;7.80;99.90
1277;DHT22;631;51.024;13.826;2023-02-20T05:46:15;7.80;99.90
1277;DHT22;631;51.024;13.826;2023-02-20T05:48:41;7.80;99.90
1277;DHT22;631;51.024;13.826;2023-02-20T05:51:07;7.80;99.90
1277;DHT22;631;51.024;13.826;2023-02-20T05:53:33;7.90;99.90
1277;DHT22;631;51.024;13.826;2023-02-20T05:55:59;7.90;99.90
1277;DHT22;631;51.024;13.826;2023-02-20T05:58:24;7.90;99.90
1277;DHT22;631;51.024;13.826;2023-02-20T06:00:51;8.00;99.90
1277;DHT22;631;51.024;13.826;2023-02-20T06:03:17;8.00;99.90
1277;DHT22;631;51.024;13.826;2023-02-20T06:05:43;7.90;99.90
1277;DHT22;631;51.024;13.826;2023-02-20T06:08:09;7.90;99.90
1277;DHT22;631;51.024;13.826;2023-02-20T06:10:35;7.80;99.90
1277;DHT22;631;51.024;13.826;2023-02-20T06:13:00;7.80;99.90
1277;DHT22;631;51.024;13.826;2023-02-20T06:15:26;7.70;99.90
1277;DHT22;631;51.024;13.826;2023-02-20T06:17:52;7.70;99.90
1277;DHT22;631;51.024;13.826;2023-02-20T06:20:18;7.80;99.90
1277;DHT22;631;51.024;13.826;2023-02-20T06:22:49;7.70;99.90
1277;DHT22;631;51.024;13.826;2023-02-20T06:25:15;7.80;99.90
1277;DHT22;631;51.024;13.826;2023-02-20T06:27:40;7.80;99.90
1277;DHT22;631;51.024;13.826;2023-02-20T06:30:07;7.70;99.90
1277;DHT22;631;51.024;13.826;2023-02-20T06:32:33;7.70;99.90
1277;DHT22;631;51.024;13.826;2023-02-20T06:34:58;7.80;99.90
1277;DHT22;631;51.024;13.826;2023-02-20T06:37:24;7.90;99.90
1277;DHT22;631;51.024;13.826;2023-02-20T06:39:50;7.90;99.90
1277;DHT22;631;51.024;13.826;2023-02-20T06:42:18;7.90;99.90
1277;DHT22;631;51.024;13.826;2023-02-20T06:44:46;8.00;99.90
1277;DHT22;631;51.024;13.826;2023-02-20T06:47:12;8.20;99.90
1277;DHT22;631;51.024;13.826;2023-02-20T06:49:38;8.20;99.90
1277;DHT22;631;51.024;13.826;2023-02-20T06:52:06;8.30;99.90
1277;DHT22;631;51.024;13.826;2023-02-20T06:54:32;8.30;99.90
1277;DHT22;631;51.024;13.826;2023-02-20T06:56:59;8.30;99.90
1277;DHT22;631;51.024;13.826;2023-02-20T06:59:31;8.40;99.90
1277;DHT22;631;51.024;13.826;2023-02-20T07:02:04;8.40;99.90
1277;DHT22;631;51.024;13.826;2023-02-20T07:04:30;8.30;99.90
1277;DHT22;631;51.024;13.826;2023-02-20T07:06:55;8.40;99.90
1277;DHT22;631;51.024;13.826;2023-02-20T07:09:21;8.40;99.90
1277;DHT22;631;51.024;13.826;2023-02-20T07:11:51;8.50;99.90
1277;DHT22;631;51.024;13.826;2023-02-20T07:14:17;8.50;99.90
1277;DHT22;631;51.024;13.826;2023-02-20T07:16:43;8.50;99.90
1277;DHT22;631;51.024;13.826;2023-02-20T07:19:08;8.50;99.90
1277;DHT22;631;51.024;13.826;2023-02-20T07:21:34;8.50;99.90
1277;DHT22;631;51.024;13.826;2023-02-20T07:23:59;8.50;99.90
1277;DHT22;631;51.024;13.826;2023-02-20T07:26:26;8.60;99.90
1277;DHT22;631;51.024;13.826;2023-02-20T07:28:53;8.80;99.90
1277;DHT22;631;51.024;13.826;2023-02-20T07:31:21;8.80;99.90
1277;DHT22;631;51.024;13.826;2023-02-20T07:33:47;8.80;99.90
1277;DHT22;631;51.024;13.826;2023-02-20T07:36:13;8.90;99.90
1277;DHT22;631;51.024;13.826;2023-02-20T07:38:40;8.90;99.90
1277;DHT22;631;51.024;13.826;2023-02-20T07:41:06;8.90;99.90
1277;DHT22;631;51.024;13.826;2023-02-20T07:43:31;9.10;99.90
1277;DHT22;631;51.024;13.826;2023-02-20T07:45:57;9.20;99.90
1277;DHT22;631;51.024;13.826;2023-02-20T07:48:23;9.20;99.90
1277;DHT22;631;51.024;13.826;2023-02-20T07:50:49;9.20;99.90
1277;DHT22;631;51.024;13.826;2023-02-20T07:53:17;9.20;99.90
1277;DHT22;631;51.024;13.826;2023-02-20T07:55:43;9.30;99.90
1277;DHT22;631;51.024;13.826;2023-02-20T07:58:09;9.50;99.90
1277;DHT22;631;51.024;13.826;2023-02-20T08:00:35;9.50;99.90
1277;DHT22;631;51.024;13.826;2023-02-20T08:03:01;9.60;99.90
1277;DHT22;631;51.024;13.826;2023-02-20T08:05:27;9.70;99.90
1277;DHT22;631;51.024;13.826;2023-02-20T08:07:52;9.90;99.90
1277;DHT22;631;51.024;13.826;2023-02-20T08:10:21;10.00;99.70
1277;DHT22;631;51.024;13.826;2023-02-20T08:12:48;10.10;98.40
1277;DHT22;631;51.024;13.826;2023-02-20T08:15:14;10.20;98.70
1277;DHT22;631;51.024;13.826;2023-02-20T08:17:40;10.20;98.20
1277;DHT22;631;51.024;13.826;2023-02-20T08:20:07;10.20;96.10
1277;DHT22;631;51.024;13.826;2023-02-20T08:22:33;10.20;95.20
1277;DHT22;631;51.024;13.826;2023-02-20T08:24:59;10.30;92.90
1277;DHT22;631;51.024;13.826;2023-02-20T08:27:25;10.30;95.80
1277;DHT22;631;51.024;13.826;2023-02-20T08:29:51;10.50;94.60
1277;DHT22;631;51.024;13.826;2023-02-20T08:32:17;10.90;94.90
1277;DHT22;631;51.024;13.826;2023-02-20T08:34:43;11.40;92.20
1277;DHT22;631;51.024;13.826;2023-02-20T08:37:08;11.60;89.50
1277;DHT22;631;51.024;13.826;2023-02-20T08:39:35;11.70;89.30
1277;DHT22;631;51.024;13.826;2023-02-20T08:42:01;11.80;87.60
1277;DHT22;631;51.024;13.826;2023-02-20T08:44:26;12.10;83.40
1277;DHT22;631;51.024;13.826;2023-02-20T08:46:52;12.50;79.90
1277;DHT22;631;51.024;13.826;2023-02-20T08:49:18;12.40;77.60
1277;DHT22;631;51.024;13.826;2023-02-20T08:51:45;12.40;79.00
1277;DHT22;631;51.024;13.826;2023-02-20T08:54:11;12.70;82.70
1277;DHT22;631;51.024;13.826;2023-02-20T08:56:37;12.90;79.30
1277;DHT22;631;51.024;13.826;2023-02-20T08:59:02;13.20;78.20
1277;DHT22;631;51.024;13.826;2023-02-20T09:01:28;13.20;79.80
1277;DHT22;631;51.024;13.826;2023-02-20T09:03:54;13.40;78.40
1277;DHT22;631;51.024;13.826;2023-02-20T09:06:20;13.30;78.80
1277;DHT22;631;51.024;13.826;2023-02-20T09:08:48;13.40;76.90
1277;DHT22;631;51.024;13.826;2023-02-20T09:11:14;13.60;77.30
1277;DHT22;631;51.024;13.826;2023-02-20T09:13:47;13.90;75.10
1277;DHT22;631;51.024;13.826;2023-02-20T09:16:15;14.00;71.20
1277;DHT22;631;51.024;13.826;2023-02-20T09:18:42;13.70;68.20
1277;DHT22;631;51.024;13.826;2023-02-20T09:21:10;13.50;71.00
1277;DHT22;631;51.024;13.826;2023-02-20T09:23:36;13.40;72.00
1277;DHT22;631;51.024;13.826;2023-02-20T09:26:02;13.00;74.60
1277;DHT22;631;51.024;13.826;2023-02-20T09:28:28;12.90;73.50
1277;DHT22;631;51.024;13.826;2023-02-20T09:30:53;12.70;75.60
1277;DHT22;631;51.024;13.826;2023-02-20T09:33:22;12.60;76.50
1277;DHT22;631;51.024;13.826;2023-02-20T09:35:47;12.70;78.70
1277;DHT22;631;51.024;13.826;2023-02-20T09:38:17;12.50;77.20
1277;DHT22;631;51.024;13.826;2023-02-20T09:40:43;12.30;78.70
1277;DHT22;631;51.024;13.826;2023-02-20T09:43:33;12.50;79.00
1277;DHT22;631;51.024;13.826;2023-02-20T09:51:34;12.70;81.80
1277;DHT22;631;51.024;13.826;2023-02-20T09:54:23;12.70;78.80
1277;DHT22;631;51.024;13.826;2023-02-20T09:56:53;12.50;78.70
1277;DHT22;631;51.024;13.826;2023-02-20T09:59:47;12.60;80.60
1277;DHT22;631;51.024;13.826;2023-02-20T10:02:30;12.50;79.90
1277;DHT22;631;51.024;13.826;2023-02-20T10:05:01;12.50;78.30
1277;DHT22;631;51.024;13.826;2023-02-20T10:07:35;12.50;79.40
1277;DHT22;631;51.024;13.826;2023-02-20T10:10:22;12.50;79.10
1277;DHT22;631;51.024;13.826;2023-02-20T10:18:35;12.60;80.00
1277;DHT22;631;51.024;13.826;2023-02-20T10:23:37;12.70;79.60
1277;DHT22;631;51.024;13.826;2023-02-20T10:26:21;12.70;75.80
1277;DHT22;631;51.024;13.826;2023-02-20T10:28:49;12.60;75.50
1277;DHT22;631;51.024;13.826;2023-02-20T10:31:42;12.50;77.50
1277;DHT22;631;51.024;13.826;2023-02-20T10:37:13;12.50;78.50
1277;DHT22;631;51.024;13.826;2023-02-20T10:39:47;12.60;75.70
1277;DHT22;631;51.024;13.826;2023-02-20T10:45:12;12.70;76.90
1277;DHT22;631;51.024;13.826;2023-02-20T10:48:04;12.60;75.10
1277;DHT22;631;51.024;13.826;2023-02-20T10:56:09;12.70;77.60
1277;DHT22;631;51.024;13.826;2023-02-20T10:58:48;12.80;73.20
1277;DHT22;631;51.024;13.826;2023-02-20T11:01:18;12.80;73.10
1277;DHT22;631;51.024;13.826;2023-02-20T11:06:13;13.00;73.40
1277;DHT22;631;51.024;13.826;2023-02-20T11:08:40;13.20;71.00
1277;DHT22;631;51.024;13.826;2023-02-20T11:11:31;13.10;69.00
1277;DHT22;631;51.024;13.826;2023-02-20T11:14:08;13.00;69.20
1277;DHT22;631;51.024;13.826;2023-02-20T11:16:40;13.20;71.20
1277;DHT22;631;51.024;13.826;2023-02-20T11:19:18;13.20;69.90
1277;DHT22;631;51.024;13.826;2023-02-20T11:21:47;13.40;67.30
1277;DHT22;631;51.024;13.826;2023-02-20T11:24:18;13.40;65.30
1277;DHT22;631;51.024;13.826;2023-02-20T11:26:46;13.20;65.80
1277;DHT22;631;51.024;13.826;2023-02-20T11:29:14;13.20;67.90
1277;DHT22;631;51.024;13.826;2023-02-20T11:31:42;13.20;64.90
1277;DHT22;631;51.024;13.826;2023-02-20T11:34:15;13.40;68.30
1277;DHT22;631;51.024;13.826;2023-02-20T11:36:46;13.60;63.90
1277;DHT22;631;51.024;13.826;2023-02-20T11:39:20;13.60;63.40
1277;DHT22;631;51.024;13.826;2023-02-20T11:41:49;13.80;63.10
1277;DHT22;631;51.024;13.826;2023-02-20T11:44:19;14.30;62.70
1277;DHT22;631;51.024;13.826;2023-02-20T11:46:46;14.40;61.30
1277;DHT22;631;51.024;13.826;2023-02-20T11:49:27;14.70;58.80
1277;DHT22;631;51.024;13.826;2023-02-20T11:52:15;14.90;57.00
1277;DHT22;631;51.024;13.826;2023-02-20T11:54:42;15.10;55.60
1277;DHT22;631;51.024;13.826;2023-02-20T11:57:28;15.30;54.30
1277;DHT22;631;51.024;13.826;2023-02-20T12:00:11;15.50;54.50
1277;DHT22;631;51.024;13.826;2023-02-20T12:02:50;15.40;52.90
1277;DHT22;631;51.024;13.826;2023-02-20T12:05:16;15.40;53.50
1277;DHT22;631;51.024;13.826;2023-02-20T12:10:42;15.60;54.70
1277;DHT22;631;51.024;13.826;2023-02-20T12:13:14;15.80;52.20
1277;DHT22;631;51.024;13.826;2023-02-20T12:15:41;15.80;51.50
1277;DHT22;631;51.024;13.826;2023-02-20T12:18:55;15.40;51.90
1277;DHT22;631;51.024;13.826;2023-02-20T12:21:34;15.20;53.20
1277;DHT22;631;51.024;13.826;2023-02-20T12:26:57;15.30;54.50
1277;DHT22;631;51.024;13.826;2023-02-20T12:32:09;16.40;51.60
1277;DHT22;631;51.024;13.826;2023-02-20T12:34:57;16.50;50.70
1277;DHT22;631;51.024;13.826;2023-02-20T12:45:37;16.90;50.60
1277;DHT22;631;51.024;13.826;2023-02-20T12:48:13;16.90;50.60
1277;DHT22;631;51.024;13.826;2023-02-20T12:50:54;16.90;50.10
1277;DHT22;631;51.024;13.826;2023-02-20T13:01:21;15.90;52.60
1277;DHT22;631;51.024;13.826;2023-02-20T13:06:45;15.70;53.90
1277;DHT22;631;51.024;13.826;2023-02-20T13:09:25;15.30;54.50
1277;DHT22;631;51.024;13.826;2023-02-20T13:12:01;15.30;56.60
1277;DHT22;631;51.024;13.826;2023-02-20T13:17:37;15.00;57.30
1277;DHT22;631;51.024;13.826;2023-02-20T13:20:21;15.00;57.50
1277;DHT22;631;51.024;13.826;2023-02-20T13:23:26;14.80;59.40
1277;DHT22;631;51.024;13.826;2023-02-20T13:25:54;14.70;60.30
1277;DHT22;631;51.024;13.826;2023-02-20T13:33:37;14.80;62.50
1277;DHT22;631;51.024;13.826;2023-02-20T13:36:04;15.10;63.30
1277;DHT22;631;51.024;13.826;2023-02-20T13:38:30;15.10;62.00
1277;DHT22;631;51.024;13.826;2023-02-20T13:53:56;15.20;63.70
1277;DHT22;631;51.024;13.826;2023-02-20T13:56:48;15.10;62.90
1277;DHT22;631;51.024;13.826;2023-02-20T13:59:17;15.00;64.40
1277;DHT22;631;51.024;13.826;2023-02-20T14:02:07;15.20;63.70
1277;DHT22;631;51.024;13.826;2023-02-20T14:04:36;15.10;65.50
1277;DHT22;631;51.024;13.826;2023-02-20T14:07:02;15.30;65.60
1277;DHT22;631;51.024;13.826;2023-02-20T14:09:29;15.20;65.20
1277;DHT22;631;51.024;13.826;2023-02-20T14:12:12;15.10;68.20
1277;DHT22;631;51.024;13.826;2023-02-20T14:14:41;15.10;66.20
1277;DHT22;631;51.024;13.826;2023-02-20T14:19:45;15.20;67.80
1277;DHT22;631;51.024;13.826;2023-02-20T14:22:24;15.30;64.90
1277;DHT22;631;51.024;13.826;2023-02-20T14:27:38;15.20;66.70
1277;DHT22;631;51.024;13.826;2023-02-20T14:30:07;15.00;68.10
1277;DHT22;631;51.024;13.826;2023-02-20T14:32:34;15.10;68.10
1277;DHT22;631;51.024;13.826;2023-02-20T14:37:45;15.30;66.00
1277;DHT22;631;51.024;13.826;2023-02-20T14:40:17;15.00;67.10
1277;DHT22;631;51.024;13.826;2023-02-20T14:42:47;14.80;68.10
1277;DHT22;631;51.024;13.826;2023-02-20T14:45:16;14.80;70.40
1277;DHT22;631;51.024;13.826;2023-02-20T14:47:58;14.70;70.00
1277;DHT22;631;51.024;13.826;2023-02-20T14:50:32;14.50;70.50
1277;DHT22;631;51.024;13.826;2023-02-20T14:53:19;14.40;72.00
1277;DHT22;631;51.024;13.826;2023-02-20T14:55:50;14.40;71.90
1277;DHT22;631;51.024;13.826;2023-02-20T14:58:18;14.20;73.70
1277;DHT22;631;51.024;13.826;2023-02-20T15:00:46;14.20;76.40
1277;DHT22;631;51.024;13.826;2023-02-20T15:03:26;14.00;75.60
1277;DHT22;631;51.024;13.826;2023-02-20T15:05:52;14.10;76.70
1277;DHT22;631;51.024;13.826;2023-02-20T15:08:20;14.20;78.10
1277;DHT22;631;51.024;13.826;2023-02-20T15:10:50;14.10;76.50
1277;DHT22;631;51.024;13.826;2023-02-20T15:13:23;14.10;78.10
1277;DHT22;631;51.024;13.826;2023-02-20T15:15:53;14.00;77.90
1277;DHT22;631;51.024;13.826;2023-02-20T15:18:40;13.90;80.00
1277;DHT22;631;51.024;13.826;2023-02-20T15:21:07;13.80;80.70
1277;DHT22;631;51.024;13.826;2023-02-20T15:23:39;13.70;81.20
1277;DHT22;631;51.024;13.826;2023-02-20T15:26:35;13.70;82.50
1277;DHT22;631;51.024;13.826;2023-02-20T15:31:36;13.60;83.30
1277;DHT22;631;51.024;13.826;2023-02-20T15:34:12;13.70;85.00
1277;DHT22;631;51.024;13.826;2023-02-20T15:36:40;13.70;84.50
1277;DHT22;631;51.024;13.826;2023-02-20T15:39:09;13.70;84.00
1277;DHT22;631;51.024;13.826;2023-02-20T15:41:35;13.70;84.40
1277;DHT22;631;51.024;13.826;2023-02-20T15:44:01;13.70;85.90
1277;DHT22;631;51.024;13.826;2023-02-20T15:46:27;13.70;85.10
1277;DHT22;631;51.024;13.826;2023-02-20T15:48:53;13.70;87.80
1277;DHT22;631;51.024;13.826;2023-02-20T15:51:21;13.70;87.50
1277;DHT22;631;51.024;13.826;2023-02-20T15:53:48;13.60;85.60
1277;DHT22;631;51.024;13.826;2023-02-20T15:56:14;13.60;87.80
1277;DHT22;631;51.024;13.826;2023-02-20T15:58:41;13.60;87.50
1277;DHT22;631;51.024;13.826;2023-02-20T16:01:07;13.50;88.20
1277;DHT22;631;51.024;13.826;2023-02-20T16:03:33;13.60;88.70
1277;DHT22;631;51.024;13.826;2023-02-20T16:05:59;13.60;88.30
1277;DHT22;631;51.024;13.826;2023-02-20T16:08:26;13.50;89.80
1277;DHT22;631;51.024;13.826;2023-02-20T16:10:52;13.50;90.30
1277;DHT22;631;51.024;13.826;2023-02-20T16:15:50;13.40;90.70
1277;DHT22;631;51.024;13.826;2023-02-20T16:18:15;13.40;90.20
1277;DHT22;631;51.024;13.826;2023-02-20T16:20:41;13.40;90.40
1277;DHT22;631;51.024;13.826;2023-02-20T16:23:06;13.30;91.00
1277;DHT22;631;51.024;13.826;2023-02-20T16:25:33;13.40;90.90
1277;DHT22;631;51.024;13.826;2023-02-20T16:27:59;13.30;91.00
1277;DHT22;631;51.024;13.826;2023-02-20T16:30:43;13.30;91.70
1277;DHT22;631;51.024;13.826;2023-02-20T16:33:18;13.30;92.00
1277;DHT22;631;51.024;13.826;2023-02-20T16:35:45;13.20;92.30
1277;DHT22;631;51.024;13.826;2023-02-20T16:38:11;13.20;92.80
1277;DHT22;631;51.024;13.826;2023-02-20T16:40:37;13.20;92.70
1277;DHT22;631;51.024;13.826;2023-02-20T16:43:04;13.20;93.40
1277;DHT22;631;51.024;13.826;2023-02-20T16:45:30;13.20;93.20
1277;DHT22;631;51.024;13.826;2023-02-20T16:47:56;13.20;93.80
1277;DHT22;631;51.024;13.826;2023-02-20T16:50:27;13.20;93.50
1277;DHT22;631;51.024;13.826;2023-02-20T16:52:55;13.10;93.80
1277;DHT22;631;51.024;13.826;2023-02-20T16:55:31;13.10;94.30
1277;DHT22;631;51.024;13.826;2023-02-20T16:57:57;13.10;94.80
1277;DHT22;631;51.024;13.826;2023-02-20T17:00:28;13.10;95.00
1277;DHT22;631;51.024;13.826;2023-02-20T17:02:54;13.10;95.60
1277;DHT22;631;51.024;13.826;2023-02-20T17:05:22;13.10;95.70
1277;DHT22;631;51.024;13.826;2023-02-20T17:07:49;13.10;95.60
1277;DHT22;631;51.024;13.826;2023-02-20T17:10:15;13.10;96.50
1277;DHT22;631;51.024;13.826;2023-02-20T17:12:40;13.10;96.50
1277;DHT22;631;51.024;13.826;2023-02-20T17:15:07;13.00;97.10
1277;DHT22;631;51.024;13.826;2023-02-20T17:17:33;13.10;97.20
1277;DHT22;631;51.024;13.826;2023-02-20T17:20:00;13.10;97.60
1277;DHT22;631;51.024;13.826;2023-02-20T17:22:27;13.10;97.20
1277;DHT22;631;51.024;13.826;2023-02-20T17:24:54;13.00;97.30
1277;DHT22;631;51.024;13.826;2023-02-20T17:27:21;13.00;98.20
1277;DHT22;631;51.024;13.826;2023-02-20T17:29:47;13.00;97.80
1277;DHT22;631;51.024;13.826;2023-02-20T17:32:14;13.10;98.70
1277;DHT22;631;51.024;13.826;2023-02-20T17:34:40;13.10;98.70
1277;DHT22;631;51.024;13.826;2023-02-20T17:37:07;13.10;98.90
1277;DHT22;631;51.024;13.826;2023-02-20T17:39:33;13.10;98.80
1277;DHT22;631;51.024;13.826;2023-02-20T17:41:59;13.20;98.20
1277;DHT22;631;51.024;13.826;2023-02-20T17:44:29;13.20;98.00
1277;DHT22;631;51.024;13.826;2023-02-20T17:46:56;13.30;99.20
1277;DHT22;631;51.024;13.826;2023-02-20T17:49:23;13.20;98.60
1277;DHT22;631;51.024;13.826;2023-02-20T17:51:50;13.30;98.40
1277;DHT22;631;51.024;13.826;2023-02-20T17:54:17;13.20;98.20
1277;DHT22;631;51.024;13.826;2023-02-20T17:56:48;13.30;98.70
1277;DHT22;631;51.024;13.826;2023-02-20T17:59:14;13.30;98.50
1277;DHT22;631;51.024;13.826;2023-02-20T18:01:41;13.20;98.10
1277;DHT22;631;51.024;13.826;2023-02-20T18:04:07;13.20;98.50
1277;DHT22;631;51.024;13.826;2023-02-20T18:06:34;13.20;99.30
1277;DHT22;631;51.024;13.826;2023-02-20T18:09:00;13.20;99.80
1277;DHT22;631;51.024;13.826;2023-02-20T18:11:26;13.20;99.60
1277;DHT22;631;51.024;13.826;2023-02-20T18:13:53;13.10;99.90
1277;DHT22;631;51.024;13.826;2023-02-20T18:16:19;13.00;99.90